createdAt,value
2019-03-29T00:01:31.065Z,99.90
2019-03-29T00:04:00.966Z,99.90
2019-03-29T00:06:31.593Z,99.90
2019-03-29T00:09:01.967Z,99.90
2019-03-29T00:11:32.036Z,99.90
2019-03-29T00:14:01.920Z,99.90
2019-03-29T00:16:31.486Z,99.90
2019-03-29T00:19:01.324Z,99.90
2019-03-29T00:21:32.619Z,99.90
2019-03-29T00:24:07.091Z,99.90
2019-03-29T00:26:34.180Z,99.90
2019-03-29T00:29:03.968Z,99.90
2019-03-29T00:31:34.018Z,99.90
2019-03-29T00:34:04.023Z,99.90
2019-03-29T00:36:33.592Z,99.90
2019-03-29T00:39:03.228Z,99.90
2019-03-29T00:41:32.792Z,99.90
2019-03-29T00:44:02.620Z,99.90
2019-03-29T00:46:32.823Z,99.90
2019-03-29T00:49:02.891Z,99.90
2019-03-29T00:51:32.769Z,99.90
2019-03-29T00:54:02.530Z,99.90
2019-03-29T00:56:32.376Z,99.90
2019-03-29T00:59:02.538Z,99.90
2019-03-29T01:01:32.172Z,99.90
2019-03-29T01:04:02.917Z,99.90
2019-03-29T01:06:33.143Z,99.90
2019-03-29T01:09:02.753Z,99.90
2019-03-29T01:11:32.571Z,99.90
2019-03-29T01:14:02.393Z,99.90
2019-03-29T01:16:31.987Z,99.90
2019-03-29T01:19:02.484Z,99.90
2019-03-29T01:21:32.727Z,99.90
2019-03-29T01:24:02.891Z,99.90
2019-03-29T01:26:32.996Z,99.90
2019-03-29T01:29:02.933Z,99.90
2019-03-29T01:31:32.764Z,99.90
2019-03-29T01:34:02.895Z,99.90
2019-03-29T01:36:32.719Z,99.90
2019-03-29T01:39:02.602Z,99.90
2019-03-29T01:41:32.707Z,99.90
2019-03-29T01:44:02.535Z,99.90
2019-03-29T01:46:31.908Z,99.90
2019-03-29T01:49:01.415Z,99.90
2019-03-29T01:51:31.178Z,99.90
2019-03-29T01:54:01.049Z,99.90
2019-03-29T01:56:30.925Z,99.90
2019-03-29T01:59:01.102Z,99.90
2019-03-29T02:01:31.266Z,99.90
2019-03-29T02:04:00.982Z,99.90
2019-03-29T02:06:30.377Z,99.90
2019-03-29T02:09:00.663Z,99.90
2019-03-29T02:11:30.835Z,99.90
2019-03-29T02:14:00.428Z,99.90
2019-03-29T02:16:30.539Z,99.90
2019-03-29T02:19:00.162Z,99.90
2019-03-29T02:21:31.668Z,99.90
2019-03-29T02:24:01.037Z,99.90
2019-03-29T02:26:30.732Z,99.90
2019-03-29T02:29:00.057Z,99.90
2019-03-29T02:31:30.028Z,99.90
2019-03-29T02:34:00.079Z,99.90
2019-03-29T02:36:30.013Z,99.90
2019-03-29T02:38:59.657Z,99.90
2019-03-29T02:41:29.906Z,99.90
2019-03-29T02:43:59.562Z,99.90
2019-03-29T02:46:29.289Z,99.90
2019-03-29T02:48:59.153Z,99.90
2019-03-29T02:51:29.375Z,99.90
2019-03-29T02:53:59.161Z,99.90
2019-03-29T02:56:29.110Z,99.90
2019-03-29T02:58:58.627Z,99.90
2019-03-29T03:01:28.374Z,99.90
2019-03-29T03:03:58.630Z,99.90
2019-03-29T03:06:31.385Z,99.90
2019-03-29T03:09:13.374Z,99.90
2019-03-29T03:11:32.456Z,99.90
2019-03-29T03:14:02.339Z,99.90
2019-03-29T03:16:31.873Z,99.90
2019-03-29T03:19:01.677Z,99.90
2019-03-29T03:21:31.096Z,99.90
2019-03-29T03:24:00.514Z,99.90
2019-03-29T03:26:30.279Z,99.90
2019-03-29T03:28:59.629Z,99.90
2019-03-29T03:31:29.395Z,99.90
2019-03-29T03:34:00.109Z,99.90
2019-03-29T03:36:29.764Z,99.90
2019-03-29T03:38:59.741Z,99.90
2019-03-29T03:41:29.899Z,99.90
2019-03-29T03:44:00.218Z,99.90
2019-03-29T03:46:29.876Z,99.90
2019-03-29T03:48:59.305Z,99.90
2019-03-29T03:51:29.053Z,99.90
2019-03-29T03:53:58.831Z,99.90
2019-03-29T03:56:29.805Z,99.90
2019-03-29T03:59:00.763Z,99.90
2019-03-29T04:01:30.427Z,99.90
2019-03-29T04:04:00.433Z,99.90
2019-03-29T04:06:30.033Z,99.90
2019-03-29T04:08:59.907Z,99.90
2019-03-29T04:11:29.483Z,99.90
2019-03-29T04:13:59.203Z,99.90
2019-03-29T04:16:28.766Z,99.90
2019-03-29T04:18:58.996Z,99.90
2019-03-29T04:21:28.783Z,99.90
2019-03-29T04:23:58.699Z,99.90
2019-03-29T04:26:28.624Z,99.90
2019-03-29T04:29:05.002Z,99.90
2019-03-29T04:31:30.373Z,99.90
2019-03-29T04:34:00.204Z,99.90
2019-03-29T04:36:29.836Z,99.90
2019-03-29T04:38:59.823Z,99.90
2019-03-29T04:41:29.713Z,99.90
2019-03-29T04:44:00.304Z,99.90
2019-03-29T04:46:30.136Z,99.90
2019-03-29T04:49:00.501Z,99.90
2019-03-29T04:51:30.536Z,99.90
2019-03-29T04:54:00.350Z,99.90
2019-03-29T04:56:30.056Z,99.90
2019-03-29T04:59:00.330Z,99.90
2019-03-29T05:01:30.594Z,99.90
2019-03-29T05:04:00.561Z,99.90
2019-03-29T05:06:30.229Z,99.90
2019-03-29T05:09:00.135Z,99.90
2019-03-29T05:11:29.967Z,99.90
2019-03-29T05:13:59.771Z,99.90
2019-03-29T05:16:29.831Z,99.90
2019-03-29T05:18:59.187Z,99.90
2019-03-29T05:21:29.211Z,99.90
2019-03-29T05:23:59.224Z,99.90
2019-03-29T05:26:29.343Z,99.90
2019-03-29T05:28:59.196Z,99.90
2019-03-29T05:31:29.511Z,99.90
2019-03-29T05:33:59.796Z,99.90
2019-03-29T05:36:29.722Z,99.90
2019-03-29T05:39:00.044Z,99.90
2019-03-29T05:41:29.724Z,99.90
2019-03-29T05:43:59.843Z,99.90
2019-03-29T05:46:29.597Z,99.90
2019-03-29T05:48:59.370Z,99.90
2019-03-29T05:51:29.391Z,99.90
2019-03-29T05:53:59.565Z,99.90
2019-03-29T05:56:29.560Z,99.90
2019-03-29T05:58:58.992Z,99.90
2019-03-29T06:01:29.039Z,99.90
2019-03-29T06:03:58.856Z,99.90
2019-03-29T06:06:29.228Z,99.90
2019-03-29T06:08:59.327Z,99.90
2019-03-29T06:11:29.143Z,99.90
2019-03-29T06:13:59.569Z,99.90
2019-03-29T06:16:38.943Z,99.90
2019-03-29T06:19:00.275Z,99.90
2019-03-29T06:21:29.947Z,99.90
2019-03-29T06:23:59.628Z,99.90
2019-03-29T06:26:28.981Z,99.90
2019-03-29T06:28:58.380Z,99.90
2019-03-29T06:31:28.662Z,99.90
2019-03-29T06:33:58.939Z,99.90
2019-03-29T06:36:30.235Z,99.90
2019-03-29T06:39:01.523Z,99.90
2019-03-29T06:41:31.168Z,99.90
2019-03-29T06:44:00.800Z,99.90
2019-03-29T06:46:30.435Z,99.90
2019-03-29T06:48:59.768Z,99.90
2019-03-29T06:51:29.880Z,99.90
2019-03-29T06:54:00.020Z,99.90
2019-03-29T06:56:29.641Z,99.90
2019-03-29T06:58:59.220Z,99.90
2019-03-29T07:01:28.844Z,99.90
2019-03-29T07:03:58.686Z,99.90
2019-03-29T07:06:30.521Z,99.90
2019-03-29T07:08:59.475Z,99.90
2019-03-29T07:11:29.456Z,99.90
2019-03-29T07:13:59.324Z,99.90
2019-03-29T07:16:28.811Z,99.90
2019-03-29T07:18:58.430Z,99.90
2019-03-29T07:21:28.575Z,99.90
2019-03-29T07:23:58.197Z,99.90
2019-03-29T07:26:28.115Z,99.90
2019-03-29T07:28:57.795Z,99.90
2019-03-29T07:31:27.229Z,99.90
2019-03-29T07:33:56.831Z,99.90
2019-03-29T07:36:26.501Z,99.90
2019-03-29T07:38:56.605Z,99.90
2019-03-29T07:41:32.180Z,99.90
2019-03-29T07:43:57.354Z,99.90
2019-03-29T07:46:26.696Z,99.90
2019-03-29T07:48:56.293Z,99.90
2019-03-29T07:51:26.396Z,99.90
2019-03-29T07:53:56.222Z,99.90
2019-03-29T07:56:25.844Z,99.90
2019-03-29T07:58:55.540Z,99.90
2019-03-29T08:01:25.735Z,99.90
2019-03-29T08:03:56.205Z,99.90
2019-03-29T08:06:26.099Z,99.90
2019-03-29T08:08:56.199Z,99.90
2019-03-29T08:11:26.734Z,99.90
2019-03-29T08:13:57.091Z,99.90
2019-03-29T08:16:26.676Z,99.90
2019-03-29T08:18:56.268Z,99.90
2019-03-29T08:21:25.618Z,99.90
2019-03-29T08:23:54.973Z,99.90
2019-03-29T08:26:24.292Z,99.90
2019-03-29T08:28:53.884Z,99.90
2019-03-29T08:31:23.410Z,99.90
2019-03-29T08:33:53.327Z,99.90
2019-03-29T08:36:23.109Z,99.90
2019-03-29T08:38:53.183Z,99.90
2019-03-29T08:41:23.121Z,99.90
2019-03-29T08:43:52.991Z,99.90
2019-03-29T08:46:22.591Z,99.90
2019-03-29T08:48:52.496Z,99.90
2019-03-29T08:51:22.416Z,99.90
2019-03-29T08:53:51.744Z,99.90
2019-03-29T08:56:21.820Z,99.90
2019-03-29T08:58:51.518Z,99.90
2019-03-29T09:01:21.464Z,99.90
2019-03-29T09:04:03.235Z,99.90
2019-03-29T09:06:22.540Z,99.90
2019-03-29T09:08:52.422Z,99.90
2019-03-29T09:11:22.659Z,99.90
2019-03-29T09:13:52.786Z,97.50
2019-03-29T09:16:22.462Z,98.70
2019-03-29T09:18:52.023Z,99.90
2019-03-29T09:21:21.707Z,99.90
2019-03-29T09:23:51.651Z,99.90
2019-03-29T09:26:20.998Z,99.90
2019-03-29T09:28:51.206Z,99.90
2019-03-29T09:31:20.571Z,99.70
2019-03-29T09:33:50.255Z,99.90
2019-03-29T09:36:20.259Z,99.90
2019-03-29T09:38:50.255Z,99.90
2019-03-29T09:41:20.550Z,99.90
2019-03-29T09:43:53.874Z,97.60
2019-03-29T09:46:22.135Z,98.20
2019-03-29T09:48:52.102Z,97.80
2019-03-29T09:51:22.023Z,99.20
2019-03-29T09:53:51.622Z,99.30
2019-03-29T09:56:21.481Z,79.50
2019-03-29T09:58:51.593Z,90.50
2019-03-29T10:01:21.456Z,90.90
2019-03-29T10:03:51.604Z,83.10
2019-03-29T10:06:21.460Z,76.60
2019-03-29T10:08:53.311Z,79.40
2019-03-29T10:11:23.068Z,81.70
2019-03-29T10:13:52.420Z,83.40
2019-03-29T10:16:25.735Z,77.80
2019-03-29T10:18:53.889Z,77.30
2019-03-29T10:21:23.551Z,69.60
2019-03-29T10:23:53.223Z,68.10
2019-03-29T10:26:23.076Z,70.80
2019-03-29T10:28:52.948Z,70.00
2019-03-29T10:31:32.264Z,68.00
2019-03-29T10:33:54.099Z,68.30
2019-03-29T10:36:23.944Z,67.30
2019-03-29T10:38:54.699Z,68.50
2019-03-29T10:41:25.125Z,72.50
2019-03-29T10:43:54.728Z,69.70
2019-03-29T10:46:24.739Z,63.90
2019-03-29T10:48:54.452Z,65.00
2019-03-29T10:51:24.647Z,63.30
2019-03-29T10:53:54.799Z,57.90
2019-03-29T10:56:34.170Z,58.40
2019-03-29T10:58:55.989Z,58.50
2019-03-29T11:01:25.915Z,59.40
2019-03-29T11:03:55.876Z,57.00
2019-03-29T11:06:25.543Z,57.10
2019-03-29T11:08:55.200Z,57.40
2019-03-29T11:11:25.134Z,56.30
2019-03-29T11:13:56.704Z,53.00
2019-03-29T11:16:25.919Z,56.30
2019-03-29T11:18:55.623Z,56.30
2019-03-29T11:21:25.682Z,55.80
2019-03-29T11:23:55.930Z,57.20
2019-03-29T11:26:26.047Z,59.70
2019-03-29T11:28:55.383Z,57.00
2019-03-29T11:31:25.704Z,57.80
2019-03-29T11:33:55.899Z,56.00
2019-03-29T11:36:25.534Z,55.80
2019-03-29T11:38:55.513Z,56.80
2019-03-29T11:41:25.892Z,55.80
2019-03-29T11:43:55.285Z,56.00
2019-03-29T11:46:25.228Z,56.90
2019-03-29T11:48:54.823Z,56.50
2019-03-29T11:51:24.905Z,56.30
2019-03-29T11:53:54.736Z,56.50
2019-03-29T11:56:24.385Z,56.30
2019-03-29T11:58:54.046Z,57.90
2019-03-29T12:01:23.631Z,55.70
2019-03-29T12:03:53.235Z,52.70
2019-03-29T12:06:23.073Z,51.60
2019-03-29T12:08:52.845Z,52.60
2019-03-29T12:11:22.700Z,53.90
2019-03-29T12:13:52.996Z,52.90
2019-03-29T12:16:22.928Z,53.20
2019-03-29T12:18:52.588Z,53.40
2019-03-29T12:21:22.263Z,50.80
2019-03-29T12:23:52.133Z,49.30
2019-03-29T12:26:21.695Z,48.30
2019-03-29T12:28:51.360Z,49.90
2019-03-29T12:31:21.205Z,49.00
2019-03-29T12:33:51.529Z,47.60
2019-03-29T12:36:21.423Z,47.40
2019-03-29T12:38:51.099Z,46.00
2019-03-29T12:41:20.679Z,46.90
2019-03-29T12:43:55.685Z,46.80
2019-03-29T12:46:22.327Z,46.70
2019-03-29T12:48:52.527Z,46.90
2019-03-29T12:51:22.127Z,49.10
2019-03-29T12:53:51.734Z,48.70
2019-03-29T12:56:21.630Z,49.50
2019-03-29T12:58:51.750Z,48.10
2019-03-29T13:01:21.091Z,45.50
2019-03-29T13:03:51.105Z,46.70
2019-03-29T13:06:20.972Z,46.90
2019-03-29T13:08:50.770Z,46.00
2019-03-29T13:11:20.916Z,46.40
2019-03-29T13:13:50.742Z,45.80
2019-03-29T13:16:20.587Z,47.00
2019-03-29T13:18:53.577Z,44.20
2019-03-29T13:21:22.204Z,46.10
2019-03-29T13:23:51.699Z,45.40
2019-03-29T13:26:21.262Z,45.30
2019-03-29T13:28:50.766Z,44.70
2019-03-29T13:31:20.444Z,46.30
2019-03-29T13:33:49.886Z,45.40
2019-03-29T13:36:19.556Z,47.50
2019-03-29T13:38:49.363Z,45.90
2019-03-29T13:41:19.185Z,44.80
2019-03-29T13:43:48.675Z,44.10
2019-03-29T13:46:18.781Z,45.10
2019-03-29T13:48:48.879Z,46.00
2019-03-29T13:51:18.339Z,47.00
2019-03-29T13:53:48.514Z,44.60
2019-03-29T13:56:17.898Z,44.80
2019-03-29T13:58:48.154Z,43.90
2019-03-29T14:01:19.267Z,43.30
2019-03-29T14:03:49.039Z,43.90
2019-03-29T14:06:18.757Z,44.00
2019-03-29T14:08:48.766Z,43.60
2019-03-29T14:11:18.741Z,44.30
2019-03-29T14:13:48.390Z,44.30
2019-03-29T14:16:17.862Z,43.60
2019-03-29T14:18:47.670Z,44.50
2019-03-29T14:21:19.636Z,45.90
2019-03-29T14:23:49.303Z,43.60
2019-03-29T14:26:19.483Z,43.10
2019-03-29T14:28:49.689Z,42.90
2019-03-29T14:31:19.616Z,42.90
2019-03-29T14:33:49.847Z,43.70
2019-03-29T14:36:19.271Z,43.50
2019-03-29T14:38:48.939Z,44.30
2019-03-29T14:41:18.689Z,44.30
2019-03-29T14:43:48.130Z,43.60
2019-03-29T14:46:17.547Z,42.20
2019-03-29T14:48:47.310Z,43.10
2019-03-29T14:51:16.854Z,43.30
2019-03-29T14:53:47.112Z,42.70
2019-03-29T14:56:17.059Z,44.40
2019-03-29T14:58:46.741Z,43.00
2019-03-29T15:01:16.363Z,43.00
2019-03-29T15:03:45.841Z,43.10
2019-03-29T15:06:15.578Z,42.10
2019-03-29T15:08:45.141Z,43.20
2019-03-29T15:11:21.990Z,42.90
2019-03-29T15:13:46.099Z,44.10
2019-03-29T15:16:15.491Z,44.10
2019-03-29T15:18:45.145Z,43.90
2019-03-29T15:21:15.301Z,43.90
2019-03-29T15:23:44.818Z,44.30
2019-03-29T15:26:14.653Z,45.00
2019-03-29T15:28:44.907Z,45.10
2019-03-29T15:31:14.930Z,45.10
2019-03-29T15:33:44.947Z,45.20
2019-03-29T15:36:14.544Z,45.80
2019-03-29T15:38:44.728Z,46.20
2019-03-29T15:41:14.643Z,46.60
2019-03-29T15:43:44.139Z,47.60
2019-03-29T15:46:13.689Z,46.60
2019-03-29T15:48:43.899Z,47.70
2019-03-29T15:51:13.772Z,47.20
2019-03-29T15:53:43.216Z,46.80
2019-03-29T15:56:13.231Z,47.30
2019-03-29T15:58:43.106Z,47.70
2019-03-29T16:01:13.049Z,47.60
2019-03-29T16:03:43.193Z,47.60
2019-03-29T16:06:12.897Z,47.40
2019-03-29T16:08:42.885Z,47.20
2019-03-29T16:11:17.052Z,48.20
2019-03-29T16:13:44.208Z,48.20
2019-03-29T16:16:13.575Z,47.70
2019-03-29T16:18:43.785Z,47.80
2019-03-29T16:21:13.553Z,47.20
2019-03-29T16:23:43.013Z,48.00
2019-03-29T16:26:12.772Z,48.30
2019-03-29T16:28:42.485Z,48.90
2019-03-29T16:31:12.673Z,49.40
2019-03-29T16:33:42.374Z,50.10
2019-03-29T16:36:12.321Z,50.20
2019-03-29T16:38:41.721Z,49.80
2019-03-29T16:41:11.151Z,49.60
2019-03-29T16:43:41.061Z,49.30
2019-03-29T16:46:11.080Z,50.00
2019-03-29T16:48:40.964Z,50.50
2019-03-29T16:51:10.354Z,50.40
2019-03-29T16:53:40.650Z,50.50
2019-03-29T16:56:12.051Z,50.00
2019-03-29T16:58:42.128Z,50.30
2019-03-29T17:01:12.147Z,51.10
2019-03-29T17:03:42.029Z,51.50
2019-03-29T17:06:11.818Z,52.00
2019-03-29T17:08:41.755Z,51.30
2019-03-29T17:11:15.282Z,51.80
2019-03-29T17:13:47.830Z,52.40
2019-03-29T17:16:29.825Z,53.00
2019-03-29T17:18:49.171Z,53.20
2019-03-29T17:21:18.576Z,53.70
2019-03-29T17:23:48.474Z,54.00
2019-03-29T17:26:18.210Z,54.50
2019-03-29T17:28:48.093Z,55.00
2019-03-29T17:31:17.963Z,55.20
2019-03-29T17:33:47.939Z,55.80
2019-03-29T17:36:17.337Z,56.20
2019-03-29T17:38:46.908Z,56.60
2019-03-29T17:41:16.741Z,57.00
2019-03-29T17:43:46.350Z,57.80
2019-03-29T17:46:17.099Z,58.40
2019-03-29T17:48:47.168Z,59.00
2019-03-29T17:51:17.009Z,60.30
2019-03-29T17:53:46.690Z,61.60
2019-03-29T17:56:17.194Z,63.50
2019-03-29T17:58:47.139Z,65.50
2019-03-29T18:01:16.966Z,67.20
2019-03-29T18:03:46.741Z,70.10
2019-03-29T18:06:16.838Z,72.00
2019-03-29T18:08:46.635Z,74.60
2019-03-29T18:11:16.418Z,78.10
2019-03-29T18:13:45.930Z,82.10
2019-03-29T18:16:29.593Z,84.80
2019-03-29T18:18:47.317Z,87.50
2019-03-29T18:21:16.873Z,90.30
2019-03-29T18:23:46.318Z,91.60
2019-03-29T18:26:15.794Z,93.00
2019-03-29T18:28:45.569Z,93.90
2019-03-29T18:31:15.126Z,95.10
2019-03-29T18:33:44.983Z,95.80
2019-03-29T18:36:14.629Z,96.40
2019-03-29T18:38:46.705Z,96.60
2019-03-29T18:41:16.511Z,96.70
2019-03-29T18:43:46.057Z,97.40
2019-03-29T18:46:15.566Z,97.80
2019-03-29T18:48:44.977Z,98.10
2019-03-29T18:51:14.882Z,98.80
2019-03-29T18:53:44.753Z,99.40
2019-03-29T18:56:14.270Z,99.60
2019-03-29T18:58:44.244Z,99.50
2019-03-29T19:01:14.184Z,99.80
2019-03-29T19:03:43.750Z,99.90
2019-03-29T19:06:13.486Z,99.90
2019-03-29T19:08:43.034Z,99.90
2019-03-29T19:11:12.529Z,99.90
2019-03-29T19:13:42.210Z,99.90
2019-03-29T19:16:11.756Z,99.90
2019-03-29T19:18:42.642Z,99.90
2019-03-29T19:21:12.122Z,99.90
2019-03-29T19:23:42.580Z,99.90
2019-03-29T19:26:13.475Z,99.90
2019-03-29T19:28:43.277Z,99.90
2019-03-29T19:31:13.447Z,99.90
2019-03-29T19:33:44.329Z,99.90
2019-03-29T19:36:14.562Z,99.90
2019-03-29T19:38:44.114Z,99.90
2019-03-29T19:41:13.646Z,99.90
2019-03-29T19:43:44.119Z,99.90
2019-03-29T19:46:13.581Z,99.90
2019-03-29T19:48:43.078Z,99.90
2019-03-29T19:51:12.539Z,99.90
2019-03-29T19:53:42.350Z,99.90
2019-03-29T19:56:11.958Z,99.90
2019-03-29T19:58:41.699Z,99.90
2019-03-29T20:01:11.288Z,99.90
2019-03-29T20:03:40.980Z,99.90
2019-03-29T20:06:10.421Z,99.90
2019-03-29T20:08:40.252Z,99.90
2019-03-29T20:11:10.144Z,99.90
2019-03-29T20:13:44.006Z,99.90
2019-03-29T20:16:13.765Z,99.90
2019-03-29T20:18:43.425Z,99.90
2019-03-29T20:21:13.462Z,99.90
2019-03-29T20:23:43.598Z,99.90
2019-03-29T20:26:13.908Z,99.90
2019-03-29T20:28:44.018Z,99.90
2019-03-29T20:31:13.398Z,99.90
2019-03-29T20:33:42.793Z,99.90
2019-03-29T20:36:12.228Z,99.90
2019-03-29T20:38:41.777Z,99.90
2019-03-29T20:41:11.643Z,99.90
2019-03-29T20:43:41.054Z,99.90
2019-03-29T20:46:10.833Z,99.90
2019-03-29T20:48:40.700Z,99.90
2019-03-29T20:51:10.545Z,99.90
2019-03-29T20:53:43.539Z,99.90
2019-03-29T20:56:12.501Z,99.90
2019-03-29T20:58:42.603Z,99.90
2019-03-29T21:01:12.896Z,99.90
2019-03-29T21:03:42.450Z,99.90
2019-03-29T21:06:11.969Z,99.90
2019-03-29T21:08:41.833Z,99.90
2019-03-29T21:11:11.475Z,99.90
2019-03-29T21:13:40.990Z,99.90
2019-03-29T21:16:10.702Z,99.90
2019-03-29T21:18:40.454Z,99.90
2019-03-29T21:21:10.400Z,99.90
2019-03-29T21:23:40.007Z,99.90
2019-03-29T21:26:09.966Z,99.90
2019-03-29T21:28:39.735Z,99.90
2019-03-29T21:31:09.876Z,99.90
2019-03-29T21:33:40.940Z,99.90
2019-03-29T21:36:11.045Z,99.90
2019-03-29T21:38:40.581Z,99.90
2019-03-29T21:41:10.706Z,99.90
2019-03-29T21:43:41.115Z,99.90
2019-03-29T21:46:11.190Z,99.90
2019-03-29T21:48:40.775Z,99.90
2019-03-29T21:51:10.320Z,99.90
2019-03-29T21:53:43.605Z,99.90
2019-03-29T21:56:12.241Z,99.90
2019-03-29T21:58:41.843Z,99.90
2019-03-29T22:01:11.366Z,99.90
2019-03-29T22:03:41.568Z,99.90
2019-03-29T22:06:11.330Z,99.90
2019-03-29T22:08:41.094Z,99.90
2019-03-29T22:11:11.319Z,99.90
2019-03-29T22:13:41.416Z,99.90
2019-03-29T22:16:10.997Z,99.90
2019-03-29T22:18:40.786Z,99.90
2019-03-29T22:21:10.576Z,99.90
2019-03-29T22:23:40.014Z,99.90
2019-03-29T22:26:09.930Z,99.90
2019-03-29T22:28:40.332Z,99.90
2019-03-29T22:31:10.137Z,99.90
2019-03-29T22:33:39.932Z,99.90
2019-03-29T22:36:09.725Z,99.90
2019-03-29T22:38:39.866Z,99.90
2019-03-29T22:41:09.994Z,99.90
2019-03-29T22:43:40.135Z,99.90
2019-03-29T22:46:10.027Z,99.90
2019-03-29T22:48:51.705Z,99.90
2019-03-29T22:51:10.823Z,99.90
2019-03-29T22:53:40.383Z,99.90
2019-03-29T22:56:09.877Z,99.90
2019-03-29T22:58:39.444Z,99.90
2019-03-29T23:01:09.190Z,99.90
2019-03-29T23:03:38.990Z,99.90
2019-03-29T23:06:08.722Z,99.90
2019-03-29T23:08:38.658Z,99.90
2019-03-29T23:11:08.664Z,99.90
2019-03-29T23:13:38.382Z,99.90
2019-03-29T23:16:08.485Z,99.90
2019-03-29T23:18:38.216Z,99.90
2019-03-29T23:21:07.806Z,99.90
2019-03-29T23:23:38.178Z,99.90
2019-03-29T23:26:08.503Z,99.90
2019-03-29T23:28:38.178Z,99.90
2019-03-29T23:31:07.871Z,99.90
2019-03-29T23:33:37.829Z,99.90
2019-03-29T23:36:07.834Z,99.90
2019-03-29T23:38:37.502Z,99.90
2019-03-29T23:41:07.554Z,99.90
2019-03-29T23:43:37.323Z,99.90
2019-03-29T23:46:07.430Z,99.90
2019-03-29T23:48:36.810Z,99.90
2019-03-29T23:51:06.988Z,99.90
2019-03-29T23:53:42.263Z,99.90
2019-03-29T23:56:12.045Z,99.90
2019-03-29T23:58:42.050Z,99.90
